createdAt,value
2019-04-09T00:00:42.600Z,0.00
2019-04-09T00:01:42.712Z,0.00
2019-04-09T00:02:42.814Z,0.00
2019-04-09T00:03:43.136Z,0.00
2019-04-09T00:04:43.553Z,0.00
2019-04-09T00:05:42.838Z,0.00
2019-04-09T00:06:42.879Z,0.00
2019-04-09T00:07:54.000Z,0.00
2019-04-09T00:08:43.523Z,0.00
2019-04-09T00:09:43.416Z,0.00
2019-04-09T00:10:43.295Z,0.00
2019-04-09T00:11:43.109Z,0.00
2019-04-09T00:12:43.187Z,0.00
2019-04-09T00:13:43.829Z,0.00
2019-04-09T00:14:43.255Z,0.00
2019-04-09T00:15:43.290Z,0.00
2019-04-09T00:16:43.539Z,0.00
2019-04-09T00:17:44.411Z,0.00
2019-04-09T00:18:43.495Z,0.00
2019-04-09T00:19:43.609Z,0.00
2019-04-09T00:20:43.540Z,0.00
2019-04-09T00:21:43.702Z,0.00
2019-04-09T00:22:43.637Z,0.00
2019-04-09T00:23:43.659Z,0.00
2019-04-09T00:24:43.707Z,0.00
2019-04-09T00:25:44.709Z,0.00
2019-04-09T00:26:48.835Z,0.00
2019-04-09T00:27:43.887Z,0.00
2019-04-09T00:28:43.912Z,0.00
2019-04-09T00:29:44.232Z,0.00
2019-04-09T00:30:43.985Z,0.00
2019-04-09T00:31:44.029Z,0.00
2019-04-09T00:32:45.173Z,0.00
2019-04-09T00:33:44.123Z,0.00
2019-04-09T00:34:44.372Z,0.00
2019-04-09T00:35:44.301Z,0.00
2019-04-09T00:36:44.293Z,0.00
2019-04-09T00:37:45.300Z,0.00
2019-04-09T00:38:45.257Z,0.00
2019-04-09T00:39:45.313Z,0.00
2019-04-09T00:40:44.457Z,0.00
2019-04-09T00:41:44.494Z,0.00
2019-04-09T00:42:45.470Z,0.00
2019-04-09T00:43:45.368Z,0.00
2019-04-09T00:44:44.698Z,0.00
2019-04-09T00:45:44.677Z,0.00
2019-04-09T00:46:47.457Z,0.00
2019-04-09T00:47:44.883Z,0.00
2019-04-09T00:48:44.840Z,0.00
2019-04-09T00:49:45.800Z,0.00
2019-04-09T00:50:45.768Z,0.00
2019-04-09T00:51:45.002Z,0.00
2019-04-09T00:52:44.999Z,0.00
2019-04-09T00:53:45.069Z,0.00
2019-04-09T00:54:45.832Z,0.00
2019-04-09T00:55:45.895Z,0.00
2019-04-09T00:56:56.511Z,0.00
2019-04-09T00:57:45.384Z,0.00
2019-04-09T00:58:45.757Z,0.00
2019-04-09T00:59:46.435Z,0.00
2019-04-09T01:00:46.980Z,0.00
2019-04-09T01:01:46.337Z,0.00
2019-04-09T01:02:45.498Z,0.00
2019-04-09T01:03:46.327Z,0.00
2019-04-09T01:04:46.394Z,0.00
2019-04-09T01:05:46.330Z,0.00
2019-04-09T01:06:45.665Z,0.00
2019-04-09T01:07:45.691Z,0.00
2019-04-09T01:08:45.738Z,0.00
2019-04-09T01:09:45.807Z,0.00
2019-04-09T01:10:46.427Z,0.00
2019-04-09T01:11:45.886Z,0.00
2019-04-09T01:12:45.925Z,0.00
2019-04-09T01:13:46.807Z,0.00
2019-04-09T01:14:46.233Z,0.00
2019-04-09T01:15:46.062Z,0.00
2019-04-09T01:16:46.433Z,0.00
2019-04-09T01:17:46.178Z,0.00
2019-04-09T01:18:46.199Z,0.00
2019-04-09T01:19:46.613Z,0.00
2019-04-09T01:20:46.310Z,0.00
2019-04-09T01:21:46.339Z,0.00
2019-04-09T01:22:46.382Z,0.00
2019-04-09T01:23:46.968Z,0.00
2019-04-09T01:24:46.495Z,0.00
2019-04-09T01:25:46.887Z,0.00
2019-04-09T01:26:47.025Z,0.00
2019-04-09T01:27:46.625Z,0.00
2019-04-09T01:28:46.664Z,0.00
2019-04-09T01:29:47.051Z,0.00
2019-04-09T01:30:46.751Z,0.00
2019-04-09T01:31:46.802Z,0.00
2019-04-09T01:32:47.322Z,0.00
2019-04-09T01:33:47.307Z,0.00
2019-04-09T01:34:47.094Z,0.00
2019-04-09T01:35:47.004Z,0.00
2019-04-09T01:36:47.806Z,0.00
2019-04-09T01:37:47.206Z,0.00
2019-04-09T01:38:47.134Z,0.00
2019-04-09T01:39:48.273Z,0.00
2019-04-09T01:40:48.150Z,0.00
2019-04-09T01:41:48.213Z,0.00
2019-04-09T01:42:47.455Z,0.00
2019-04-09T01:43:47.360Z,0.00
2019-04-09T01:44:48.111Z,0.00
2019-04-09T01:45:48.077Z,0.00
2019-04-09T01:46:47.540Z,0.00
2019-04-09T01:47:47.541Z,0.00
2019-04-09T01:48:47.587Z,0.00
2019-04-09T01:49:48.262Z,0.00
2019-04-09T01:50:48.471Z,0.00
2019-04-09T01:51:47.742Z,0.00
2019-04-09T01:52:47.764Z,0.00
2019-04-09T01:53:48.303Z,0.00
2019-04-09T01:54:48.388Z,0.00
2019-04-09T01:55:47.902Z,0.00
2019-04-09T01:56:47.970Z,0.00
2019-04-09T01:57:48.074Z,0.00
2019-04-09T01:58:48.044Z,0.00
2019-04-09T01:59:48.935Z,0.00
2019-04-09T02:00:48.557Z,0.00
2019-04-09T02:01:48.538Z,0.00
2019-04-09T02:02:48.446Z,0.00
2019-04-09T02:03:48.277Z,0.00
2019-04-09T02:04:48.621Z,0.00
2019-04-09T02:05:48.363Z,0.00
2019-04-09T02:06:48.449Z,0.00
2019-04-09T02:07:48.865Z,0.00
2019-04-09T02:08:48.826Z,0.00
2019-04-09T02:09:48.609Z,0.00
2019-04-09T02:10:49.599Z,0.00
2019-04-09T02:11:48.711Z,0.00
2019-04-09T02:12:48.689Z,0.00
2019-04-09T02:13:48.981Z,0.00
2019-04-09T02:14:48.790Z,0.00
2019-04-09T02:15:49.879Z,0.00
2019-04-09T02:16:48.997Z,0.00
2019-04-09T02:17:49.090Z,0.00
2019-04-09T02:18:48.964Z,0.00
2019-04-09T02:19:50.025Z,0.00
2019-04-09T02:20:49.941Z,0.00
2019-04-09T02:21:49.154Z,0.00
2019-04-09T02:22:49.165Z,0.00
2019-04-09T02:23:50.204Z,0.00
2019-04-09T02:24:50.011Z,0.00
2019-04-09T02:25:49.874Z,0.00
2019-04-09T02:26:49.337Z,0.00
2019-04-09T02:27:49.399Z,0.00
2019-04-09T02:28:49.766Z,0.00
2019-04-09T02:29:49.473Z,0.00
2019-04-09T02:30:50.038Z,0.00
2019-04-09T02:31:51.295Z,0.00
2019-04-09T02:32:50.750Z,0.00
2019-04-09T02:33:49.963Z,0.00
2019-04-09T02:34:50.047Z,0.00
2019-04-09T02:35:51.146Z,0.00
2019-04-09T02:36:50.703Z,0.00
2019-04-09T02:37:49.867Z,0.00
2019-04-09T02:38:49.921Z,0.00
2019-04-09T02:39:50.821Z,0.00
2019-04-09T02:40:50.169Z,0.00
2019-04-09T02:41:50.095Z,0.00
2019-04-09T02:42:50.099Z,0.00
2019-04-09T02:43:50.193Z,0.00
2019-04-09T02:44:50.163Z,0.00
2019-04-09T02:45:50.400Z,0.00
2019-04-09T02:46:51.174Z,0.00
2019-04-09T02:47:50.327Z,0.00
2019-04-09T02:48:50.418Z,0.00
2019-04-09T02:49:51.225Z,0.00
2019-04-09T02:50:51.150Z,0.00
2019-04-09T02:51:50.982Z,0.00
2019-04-09T02:52:50.558Z,0.00
2019-04-09T02:53:52.098Z,0.00
2019-04-09T02:54:50.635Z,0.00
2019-04-09T02:55:51.615Z,0.00
2019-04-09T02:56:50.723Z,0.00
2019-04-09T02:57:54.839Z,0.00
2019-04-09T02:58:51.540Z,0.00
2019-04-09T02:59:50.855Z,0.00
2019-04-09T03:00:51.063Z,0.00
2019-04-09T03:01:50.961Z,0.00
2019-04-09T03:02:51.015Z,0.00
2019-04-09T03:03:51.062Z,0.00
2019-04-09T03:04:51.090Z,0.00
2019-04-09T03:05:52.084Z,0.00
2019-04-09T03:06:51.181Z,0.00
2019-04-09T03:07:52.276Z,0.00
2019-04-09T03:08:51.409Z,0.00
2019-04-09T03:09:51.358Z,0.00
2019-04-09T03:10:51.367Z,0.00
2019-04-09T03:11:51.422Z,0.00
2019-04-09T03:12:51.858Z,0.00
2019-04-09T03:13:51.520Z,0.00
2019-04-09T03:14:51.547Z,0.00
2019-04-09T03:15:52.197Z,0.00
2019-04-09T03:16:51.643Z,0.00
2019-04-09T03:17:52.672Z,0.00
2019-04-09T03:18:51.973Z,0.00
2019-04-09T03:19:51.806Z,0.00
2019-04-09T03:20:52.752Z,0.00
2019-04-09T03:21:52.657Z,0.00
2019-04-09T03:22:51.948Z,0.00
2019-04-09T03:23:51.987Z,0.00
2019-04-09T03:24:52.007Z,0.00
2019-04-09T03:25:52.913Z,0.00
2019-04-09T03:26:52.328Z,0.00
2019-04-09T03:28:02.918Z,0.00
2019-04-09T03:28:52.235Z,0.00
2019-04-09T03:29:52.340Z,0.00
2019-04-09T03:30:53.140Z,0.00
2019-04-09T03:31:54.597Z,0.00
2019-04-09T03:32:53.859Z,0.00
2019-04-09T03:33:54.363Z,0.00
2019-04-09T03:34:53.081Z,0.00
2019-04-09T03:35:52.515Z,0.00
2019-04-09T03:36:52.603Z,0.00
2019-04-09T03:37:53.257Z,0.00
2019-04-09T03:38:53.108Z,0.00
2019-04-09T03:39:52.726Z,0.00
2019-04-09T03:40:52.743Z,0.00
2019-04-09T03:41:52.793Z,0.00
2019-04-09T03:42:53.166Z,0.00
2019-04-09T03:43:52.940Z,0.00
2019-04-09T03:44:53.812Z,0.00
2019-04-09T03:45:53.515Z,0.00
2019-04-09T03:46:53.035Z,0.00
2019-04-09T03:47:53.078Z,0.00
2019-04-09T03:48:53.118Z,0.00
2019-04-09T03:49:53.180Z,0.00
2019-04-09T03:50:53.226Z,0.00
2019-04-09T03:51:53.744Z,0.00
2019-04-09T03:52:53.919Z,0.00
2019-04-09T03:53:53.377Z,0.00
2019-04-09T03:54:53.476Z,0.00
2019-04-09T03:55:53.455Z,0.00
2019-04-09T03:56:53.484Z,0.00
2019-04-09T03:57:53.542Z,0.00
2019-04-09T03:58:53.879Z,0.00
2019-04-09T03:59:53.938Z,0.00
2019-04-09T04:00:53.671Z,0.00
2019-04-09T04:01:53.716Z,0.00
2019-04-09T04:02:55.476Z,0.00
2019-04-09T04:03:53.805Z,0.00
2019-04-09T04:04:54.534Z,0.00
2019-04-09T04:05:54.755Z,0.00
2019-04-09T04:06:54.790Z,0.00
2019-04-09T04:07:53.992Z,0.00
2019-04-09T04:08:54.040Z,0.00
2019-04-09T04:09:54.088Z,0.00
2019-04-09T04:10:54.240Z,0.00
2019-04-09T04:11:54.287Z,0.00
2019-04-09T04:12:54.225Z,0.00
2019-04-09T04:13:54.266Z,0.00
2019-04-09T04:14:54.314Z,0.00
2019-04-09T04:15:55.139Z,0.00
2019-04-09T04:16:55.115Z,0.00
2019-04-09T04:17:54.521Z,0.00
2019-04-09T04:18:54.674Z,0.00
2019-04-09T04:19:54.541Z,0.00
2019-04-09T04:20:54.607Z,0.00
2019-04-09T04:21:54.637Z,0.00
2019-04-09T04:22:54.685Z,0.00
2019-04-09T04:23:54.734Z,0.00
2019-04-09T04:24:55.147Z,4.00
2019-04-09T04:25:55.385Z,4.00
2019-04-09T04:26:54.864Z,0.00
2019-04-09T04:27:54.938Z,4.00
2019-04-09T04:28:54.965Z,8.00
2019-04-09T04:29:55.736Z,4.00
2019-04-09T04:30:55.065Z,4.00
2019-04-09T04:31:55.136Z,8.00
2019-04-09T04:32:56.189Z,12.00
2019-04-09T04:33:56.075Z,12.00
2019-04-09T04:34:55.331Z,16.00
2019-04-09T04:35:55.454Z,16.00
2019-04-09T04:36:55.597Z,20.00
2019-04-09T04:37:56.008Z,20.00
2019-04-09T04:38:56.010Z,24.00
2019-04-09T04:39:55.487Z,24.00
2019-04-09T04:40:55.916Z,28.00
2019-04-09T04:41:55.571Z,36.00
2019-04-09T04:42:56.394Z,40.00
2019-04-09T04:43:55.651Z,40.00
2019-04-09T04:44:55.686Z,48.00
2019-04-09T04:45:55.755Z,48.00
2019-04-09T04:46:55.808Z,52.00
2019-04-09T04:47:55.828Z,52.00
2019-04-09T04:48:56.186Z,60.00
2019-04-09T04:49:55.979Z,64.00
2019-04-09T04:50:55.967Z,68.00
2019-04-09T04:51:58.267Z,76.00
2019-04-09T04:52:56.065Z,84.00
2019-04-09T04:53:56.108Z,96.00
2019-04-09T04:54:56.683Z,104.00
2019-04-09T04:55:57.229Z,116.00
2019-04-09T04:56:56.374Z,132.00
2019-04-09T04:57:56.290Z,148.00
2019-04-09T04:58:56.334Z,168.00
2019-04-09T04:59:56.383Z,184.00
2019-04-09T05:00:56.428Z,204.00
2019-04-09T05:01:56.496Z,228.00
2019-04-09T05:02:56.518Z,256.00
2019-04-09T05:03:57.122Z,280.00
2019-04-09T05:04:56.607Z,304.00
2019-04-09T05:05:57.555Z,328.00
2019-04-09T05:06:57.053Z,352.00
2019-04-09T05:07:57.262Z,380.00
2019-04-09T05:08:57.755Z,408.00
2019-04-09T05:09:57.254Z,440.00
2019-04-09T05:10:56.888Z,488.00
2019-04-09T05:11:57.149Z,544.00
2019-04-09T05:12:57.540Z,604.00
2019-04-09T05:13:57.026Z,660.00
2019-04-09T05:14:57.190Z,720.00
2019-04-09T05:15:57.707Z,776.00
2019-04-09T05:16:58.160Z,836.00
2019-04-09T05:17:57.222Z,888.00
2019-04-09T05:18:57.874Z,916.00
2019-04-09T05:19:57.308Z,924.00
2019-04-09T05:20:57.652Z,908.00
2019-04-09T05:21:57.390Z,892.00
2019-04-09T05:22:57.461Z,884.00
2019-04-09T05:23:58.258Z,888.00
2019-04-09T05:24:58.641Z,904.00
2019-04-09T05:25:57.763Z,924.00
2019-04-09T05:26:58.233Z,952.00
2019-04-09T05:27:58.371Z,984.00
2019-04-09T05:29:04.028Z,1028.00
2019-04-09T05:29:57.761Z,1076.00
2019-04-09T05:30:58.717Z,1120.00
2019-04-09T05:31:57.854Z,1140.00
2019-04-09T05:32:59.288Z,1156.00
2019-04-09T05:33:58.842Z,1168.00
2019-04-09T05:34:58.780Z,1172.00
2019-04-09T05:35:59.184Z,1168.00
2019-04-09T05:36:58.348Z,1148.00
2019-04-09T05:37:58.174Z,1108.00
2019-04-09T05:39:00.667Z,1072.00
2019-04-09T05:39:58.860Z,1032.00
2019-04-09T05:40:58.387Z,1004.00
2019-04-09T05:41:58.408Z,996.00
2019-04-09T05:42:59.442Z,1008.00
2019-04-09T05:43:58.712Z,1032.00
2019-04-09T05:44:59.275Z,1064.00
2019-04-09T05:45:59.286Z,1108.00
2019-04-09T05:46:58.547Z,1156.00
2019-04-09T05:47:59.088Z,1220.00
2019-04-09T05:48:58.662Z,1320.00
2019-04-09T05:49:58.688Z,1412.00
2019-04-09T05:50:58.734Z,1496.00
2019-04-09T05:51:59.670Z,1604.00
2019-04-09T05:52:59.601Z,1728.00
2019-04-09T05:53:58.921Z,1816.00
2019-04-09T05:54:58.918Z,1880.00
2019-04-09T05:55:58.990Z,1920.00
2019-04-09T05:56:59.007Z,1924.00
2019-04-09T05:57:59.155Z,1924.00
2019-04-09T05:59:04.679Z,1916.00
2019-04-09T05:59:59.696Z,1916.00
2019-04-09T06:00:59.196Z,1896.00
2019-04-09T06:01:59.301Z,1860.00
2019-04-09T06:02:59.812Z,1828.00
2019-04-09T06:03:59.353Z,1824.00
2019-04-09T06:05:00.404Z,1864.00
2019-04-09T06:05:59.431Z,1936.00
2019-04-09T06:07:00.577Z,2012.00
2019-04-09T06:07:59.796Z,2116.00
2019-04-09T06:08:59.631Z,2228.00
2019-04-09T06:09:59.659Z,2324.00
2019-04-09T06:10:59.661Z,2408.00
2019-04-09T06:12:00.415Z,2492.00
2019-04-09T06:13:00.794Z,2564.00
2019-04-09T06:14:00.109Z,2620.00
2019-04-09T06:15:00.877Z,2652.00
2019-04-09T06:15:59.894Z,2700.00
2019-04-09T06:17:00.969Z,2788.00
2019-04-09T06:18:00.005Z,2956.00
2019-04-09T06:19:00.834Z,3184.00
2019-04-09T06:20:00.162Z,3448.00
2019-04-09T06:21:00.503Z,3656.00
2019-04-09T06:22:01.050Z,3744.00
2019-04-09T06:23:00.212Z,3732.00
2019-04-09T06:24:00.488Z,3640.00
2019-04-09T06:25:00.384Z,3544.00
2019-04-09T06:26:00.347Z,3396.00
2019-04-09T06:27:00.402Z,3192.00
2019-04-09T06:28:00.443Z,3000.00
2019-04-09T06:29:13.546Z,2840.00
2019-04-09T06:30:00.560Z,2708.00
2019-04-09T06:31:00.586Z,2568.00
2019-04-09T06:32:00.668Z,2460.00
2019-04-09T06:33:01.684Z,2384.00
2019-04-09T06:34:01.343Z,2328.00
2019-04-09T06:35:00.808Z,2296.00
2019-04-09T06:36:01.724Z,2272.00
2019-04-09T06:37:01.844Z,2244.00
2019-04-09T06:38:00.911Z,2208.00
2019-04-09T06:39:00.966Z,2108.00
2019-04-09T06:40:01.149Z,1968.00
2019-04-09T06:41:01.205Z,1872.00
2019-04-09T06:42:01.110Z,1812.00
2019-04-09T06:43:01.167Z,1820.00
2019-04-09T06:44:01.984Z,1932.00
2019-04-09T06:45:01.741Z,2160.00
2019-04-09T06:46:01.333Z,2480.00
2019-04-09T06:47:02.138Z,2848.00
2019-04-09T06:48:01.529Z,3184.00
2019-04-09T06:49:01.809Z,3380.00
2019-04-09T06:50:01.464Z,3468.00
2019-04-09T06:51:01.538Z,3568.00
2019-04-09T06:52:02.554Z,3740.00
2019-04-09T06:53:01.609Z,3964.00
2019-04-09T06:54:01.858Z,4188.00
2019-04-09T06:55:07.654Z,4404.00
2019-04-09T06:56:01.773Z,4572.00
2019-04-09T06:57:01.786Z,4740.00
2019-04-09T06:58:04.030Z,4972.00
2019-04-09T06:59:02.951Z,5328.00
2019-04-09T07:00:03.143Z,5796.00
2019-04-09T07:01:02.004Z,6276.00
2019-04-09T07:02:02.043Z,6704.00
2019-04-09T07:03:02.837Z,7060.00
2019-04-09T07:04:03.012Z,7408.00
2019-04-09T07:05:02.218Z,7928.00
2019-04-09T07:06:02.213Z,8564.00
2019-04-09T07:07:02.279Z,9272.00
2019-04-09T07:08:02.526Z,9928.00
2019-04-09T07:09:03.888Z,10220.00
2019-04-09T07:10:03.456Z,10388.00
2019-04-09T07:11:09.802Z,10320.00
2019-04-09T07:12:02.825Z,10104.00
2019-04-09T07:13:03.083Z,9992.00
2019-04-09T07:14:02.578Z,9832.00
2019-04-09T07:15:02.996Z,9904.00
2019-04-09T07:16:03.377Z,9968.00
2019-04-09T07:17:02.771Z,10040.00
2019-04-09T07:18:02.900Z,9876.00
2019-04-09T07:19:02.811Z,9532.00
2019-04-09T07:20:02.892Z,8964.00
2019-04-09T07:21:03.535Z,8516.00
2019-04-09T07:22:02.983Z,8468.00
2019-04-09T07:23:03.737Z,9012.00
2019-04-09T07:24:03.044Z,9768.00
2019-04-09T07:25:03.644Z,9944.00
2019-04-09T07:26:05.073Z,9176.00
2019-04-09T07:27:03.599Z,8164.00
2019-04-09T07:28:04.344Z,7136.00
2019-04-09T07:29:03.798Z,6264.00
2019-04-09T07:30:09.167Z,5900.00
2019-04-09T07:31:04.746Z,6084.00
2019-04-09T07:32:05.301Z,6528.00
2019-04-09T07:33:08.861Z,6744.00
2019-04-09T07:34:03.647Z,6312.00
2019-04-09T07:35:04.332Z,5532.00
2019-04-09T07:36:05.916Z,4824.00
2019-04-09T07:37:08.337Z,4344.00
2019-04-09T07:38:03.725Z,4052.00
2019-04-09T07:39:03.955Z,3956.00
2019-04-09T07:40:04.130Z,3960.00
2019-04-09T07:41:08.240Z,3928.00
2019-04-09T07:42:04.104Z,3828.00
2019-04-09T07:43:05.339Z,3692.00
2019-04-09T07:44:05.490Z,3616.00
2019-04-09T07:45:09.624Z,3648.00
2019-04-09T07:46:04.334Z,3796.00
2019-04-09T07:47:04.117Z,4048.00
2019-04-09T07:48:04.256Z,4312.00
2019-04-09T07:49:04.215Z,4544.00
2019-04-09T07:50:08.086Z,4764.00
2019-04-09T07:51:05.235Z,5028.00
2019-04-09T07:52:05.112Z,5292.00
2019-04-09T07:53:04.687Z,5472.00
2019-04-09T07:54:05.954Z,5516.00
2019-04-09T07:55:04.613Z,5496.00
2019-04-09T07:56:04.950Z,5492.00
2019-04-09T07:57:05.841Z,5492.00
2019-04-09T07:58:06.793Z,5516.00
2019-04-09T07:59:05.381Z,5592.00
2019-04-09T08:00:14.394Z,5732.00
2019-04-09T08:01:04.776Z,5920.00
2019-04-09T08:02:04.813Z,6136.00
2019-04-09T08:03:04.970Z,6444.00
2019-04-09T08:04:07.606Z,6912.00
2019-04-09T08:05:04.957Z,7568.00
2019-04-09T08:06:04.994Z,8196.00
2019-04-09T08:07:06.321Z,8584.00
2019-04-09T08:08:07.865Z,8756.00
2019-04-09T08:09:05.163Z,8784.00
2019-04-09T08:10:06.094Z,8692.00
2019-04-09T08:11:07.172Z,8648.00
2019-04-09T08:12:05.274Z,8740.00
2019-04-09T08:13:05.582Z,9108.00
2019-04-09T08:14:05.399Z,9832.00
2019-04-09T08:15:06.122Z,10856.00
2019-04-09T08:16:06.856Z,11652.00
2019-04-09T08:17:09.754Z,12116.00
2019-04-09T08:18:11.246Z,12408.00
2019-04-09T08:19:05.621Z,12396.00
2019-04-09T08:20:05.889Z,12320.00
2019-04-09T08:21:06.256Z,12268.00
2019-04-09T08:22:07.409Z,12492.00
2019-04-09T08:23:05.967Z,13152.00
2019-04-09T08:24:06.001Z,14108.00
2019-04-09T08:25:06.375Z,15224.00
2019-04-09T08:26:06.696Z,16312.00
2019-04-09T08:27:08.207Z,17196.00
2019-04-09T08:28:06.965Z,17632.00
2019-04-09T08:29:07.070Z,17824.00
2019-04-09T08:30:19.010Z,17984.00
2019-04-09T08:31:07.039Z,18240.00
2019-04-09T08:32:12.408Z,18688.00
2019-04-09T08:33:07.418Z,19328.00
2019-04-09T08:34:06.392Z,20096.00
2019-04-09T08:35:07.510Z,20800.00
2019-04-09T08:36:09.332Z,21536.00
2019-04-09T08:37:07.226Z,22400.00
2019-04-09T08:38:06.929Z,23008.00
2019-04-09T08:39:06.540Z,23040.00
2019-04-09T08:40:08.972Z,23072.00
2019-04-09T08:41:06.631Z,23264.00
2019-04-09T08:42:06.720Z,23776.00
2019-04-09T08:43:09.443Z,24832.00
2019-04-09T08:44:10.661Z,25952.00
2019-04-09T08:45:07.152Z,27552.00
2019-04-09T08:46:06.871Z,29152.00
2019-04-09T08:47:06.918Z,32736.00
2019-04-09T08:48:10.979Z,35712.00
2019-04-09T08:49:07.658Z,33952.00
2019-04-09T08:50:07.167Z,32800.00
2019-04-09T08:51:07.315Z,31488.00
2019-04-09T08:52:09.683Z,29920.00
2019-04-09T08:53:07.213Z,30464.00
2019-04-09T08:54:07.254Z,28704.00
2019-04-09T08:55:07.978Z,28384.00
2019-04-09T08:56:08.317Z,27840.00
2019-04-09T08:57:10.189Z,26624.00
2019-04-09T08:58:08.278Z,26016.00
2019-04-09T08:59:07.500Z,25888.00
2019-04-09T09:00:07.867Z,25920.00
2019-04-09T09:01:35.038Z,25856.00
2019-04-09T09:02:19.441Z,26560.00
2019-04-09T09:03:08.545Z,27360.00
2019-04-09T09:04:13.011Z,27744.00
2019-04-09T09:05:13.602Z,27488.00
2019-04-09T09:06:13.346Z,26560.00
2019-04-09T09:07:07.900Z,26496.00
2019-04-09T09:08:09.041Z,27168.00
2019-04-09T09:09:10.310Z,28192.00
2019-04-09T09:10:08.022Z,29568.00
2019-04-09T09:11:08.106Z,29472.00
2019-04-09T09:12:08.919Z,28256.00
2019-04-09T09:13:13.020Z,26048.00
2019-04-09T09:14:08.215Z,23808.00
2019-04-09T09:15:08.260Z,21856.00
2019-04-09T09:16:08.336Z,20224.00
2019-04-09T09:17:09.730Z,19168.00
2019-04-09T09:18:08.404Z,18624.00
2019-04-09T09:19:08.672Z,18368.00
2019-04-09T09:20:08.528Z,18560.00
2019-04-09T09:21:18.714Z,19200.00
2019-04-09T09:22:08.848Z,19584.00
2019-04-09T09:23:11.263Z,19232.00
2019-04-09T09:24:08.695Z,18976.00
2019-04-09T09:25:08.735Z,18752.00
2019-04-09T09:26:08.819Z,18624.00
2019-04-09T09:27:13.331Z,19008.00
2019-04-09T09:28:09.968Z,19776.00
2019-04-09T09:29:09.305Z,20896.00
2019-04-09T09:30:08.981Z,22144.00
2019-04-09T09:31:16.608Z,22592.00
2019-04-09T09:32:09.146Z,21920.00
2019-04-09T09:33:11.155Z,20704.00
2019-04-09T09:34:09.165Z,19456.00
2019-04-09T09:35:09.670Z,18176.00
2019-04-09T09:36:10.286Z,16900.00
2019-04-09T09:37:14.407Z,16084.00
2019-04-09T09:38:09.413Z,15680.00
2019-04-09T09:39:10.356Z,15500.00
2019-04-09T09:40:09.462Z,15324.00
2019-04-09T09:41:10.334Z,15040.00
2019-04-09T09:42:09.573Z,14972.00
2019-04-09T09:43:12.811Z,15116.00
2019-04-09T09:44:09.654Z,15260.00
2019-04-09T09:45:09.718Z,15332.00
2019-04-09T09:46:10.371Z,15356.00
2019-04-09T09:47:11.960Z,15296.00
2019-04-09T09:48:09.841Z,15096.00
2019-04-09T09:49:10.405Z,15284.00
2019-04-09T09:50:10.972Z,15708.00
2019-04-09T09:51:12.794Z,16284.00
2019-04-09T09:52:11.018Z,17084.00
2019-04-09T09:53:10.076Z,18112.00
2019-04-09T09:54:10.493Z,19008.00
2019-04-09T09:55:12.999Z,19776.00
2019-04-09T09:56:10.957Z,20544.00
2019-04-09T09:57:13.247Z,20672.00
2019-04-09T09:58:13.436Z,20384.00
2019-04-09T09:59:10.418Z,19584.00
2019-04-09T10:00:11.533Z,18624.00
2019-04-09T10:01:19.710Z,17760.00
2019-04-09T10:02:10.539Z,16900.00
2019-04-09T10:03:11.013Z,16468.00
2019-04-09T10:04:10.983Z,16528.00
2019-04-09T10:05:10.783Z,16976.00
2019-04-09T10:06:14.771Z,17888.00
2019-04-09T10:07:10.764Z,18976.00
2019-04-09T10:08:15.149Z,20000.00
2019-04-09T10:09:10.838Z,20704.00
2019-04-09T10:10:10.900Z,21088.00
2019-04-09T10:11:11.195Z,21344.00
2019-04-09T10:12:11.990Z,21408.00
2019-04-09T10:13:11.222Z,21216.00
2019-04-09T10:14:11.875Z,20448.00
2019-04-09T10:15:17.641Z,19200.00
2019-04-09T10:16:14.225Z,18016.00
2019-04-09T10:17:11.247Z,17048.00
2019-04-09T10:18:11.353Z,16228.00
2019-04-09T10:19:13.753Z,15548.00
2019-04-09T10:20:11.739Z,15180.00
2019-04-09T10:21:14.215Z,15072.00
2019-04-09T10:22:11.500Z,15136.00
2019-04-09T10:23:14.253Z,15224.00
2019-04-09T10:24:23.094Z,15416.00
2019-04-09T10:25:11.625Z,15692.00
2019-04-09T10:26:14.551Z,16080.00
2019-04-09T10:27:14.718Z,16648.00
2019-04-09T10:28:11.777Z,17472.00
2019-04-09T10:29:15.207Z,18112.00
2019-04-09T10:30:12.079Z,18368.00
2019-04-09T10:31:21.014Z,18112.00
2019-04-09T10:32:11.947Z,17632.00
2019-04-09T10:33:13.347Z,16944.00
2019-04-09T10:34:12.201Z,16584.00
2019-04-09T10:35:12.863Z,16740.00
2019-04-09T10:36:12.153Z,18528.00
2019-04-09T10:37:18.196Z,20992.00
2019-04-09T10:38:12.961Z,20640.00
2019-04-09T10:39:12.295Z,21088.00
2019-04-09T10:40:12.541Z,21472.00
2019-04-09T10:41:20.885Z,21760.00
2019-04-09T10:42:13.281Z,21408.00
2019-04-09T10:43:13.823Z,20800.00
2019-04-09T10:44:15.030Z,20128.00
2019-04-09T10:45:13.272Z,19424.00
2019-04-09T10:46:12.947Z,18752.00
2019-04-09T10:47:14.018Z,18048.00
2019-04-09T10:48:13.807Z,17072.00
2019-04-09T10:49:15.788Z,16128.00
2019-04-09T10:50:13.397Z,15484.00
2019-04-09T10:51:13.493Z,15596.00
2019-04-09T10:52:18.630Z,16176.00
2019-04-09T10:53:12.965Z,16988.00
2019-04-09T10:54:14.529Z,18176.00
2019-04-09T10:55:16.127Z,19072.00
2019-04-09T10:56:15.216Z,19680.00
2019-04-09T10:57:13.335Z,19776.00
2019-04-09T10:58:20.071Z,19552.00
2019-04-09T10:59:13.525Z,19232.00
2019-04-09T11:00:14.358Z,18976.00
2019-04-09T11:01:15.391Z,18752.00
2019-04-09T11:02:14.376Z,18816.00
2019-04-09T11:03:14.507Z,19168.00
2019-04-09T11:04:14.784Z,19424.00
2019-04-09T11:05:16.711Z,19552.00
2019-04-09T11:06:13.816Z,19616.00
2019-04-09T11:07:13.651Z,19456.00
2019-04-09T11:08:13.698Z,19072.00
2019-04-09T11:09:14.622Z,18528.00
2019-04-09T11:10:21.437Z,18112.00
2019-04-09T11:11:17.856Z,17920.00
2019-04-09T11:12:13.904Z,17856.00
2019-04-09T11:13:13.940Z,18016.00
2019-04-09T11:14:14.593Z,18336.00
2019-04-09T11:15:17.449Z,18400.00
2019-04-09T11:16:14.090Z,18528.00
2019-04-09T11:17:14.815Z,18592.00
2019-04-09T11:18:17.061Z,18464.00
2019-04-09T11:19:16.540Z,18304.00
2019-04-09T11:20:15.106Z,18336.00
2019-04-09T11:21:14.424Z,18528.00
2019-04-09T11:22:17.420Z,18592.00
2019-04-09T11:23:14.426Z,18656.00
2019-04-09T11:24:15.541Z,18720.00
2019-04-09T11:25:14.541Z,18880.00
2019-04-09T11:26:15.285Z,19008.00
2019-04-09T11:27:17.510Z,19136.00
2019-04-09T11:28:14.665Z,19008.00
2019-04-09T11:29:14.719Z,18720.00
2019-04-09T11:30:14.803Z,18528.00
2019-04-09T11:31:15.880Z,18624.00
2019-04-09T11:32:15.974Z,18816.00
2019-04-09T11:33:15.002Z,19040.00
2019-04-09T11:34:15.326Z,19232.00
2019-04-09T11:35:15.034Z,19424.00
2019-04-09T11:36:15.088Z,19520.00
2019-04-09T11:37:16.006Z,19520.00
2019-04-09T11:38:15.299Z,19328.00
2019-04-09T11:39:16.257Z,19232.00
2019-04-09T11:40:15.300Z,19232.00
2019-04-09T11:41:15.308Z,19328.00
2019-04-09T11:42:15.359Z,19456.00
2019-04-09T11:43:17.594Z,19808.00
2019-04-09T11:44:16.381Z,20160.00
2019-04-09T11:45:15.603Z,20448.00
2019-04-09T11:46:15.559Z,20544.00
2019-04-09T11:47:15.607Z,20576.00
2019-04-09T11:48:16.001Z,20736.00
2019-04-09T11:49:15.717Z,21152.00
2019-04-09T11:50:16.103Z,21632.00
2019-04-09T11:51:15.809Z,22144.00
2019-04-09T11:52:16.463Z,22592.00
2019-04-09T11:53:15.890Z,22912.00
2019-04-09T11:54:16.476Z,23072.00
2019-04-09T11:55:16.006Z,23264.00
2019-04-09T11:56:16.057Z,23200.00
2019-04-09T11:57:16.861Z,22912.00
2019-04-09T11:58:17.175Z,22688.00
2019-04-09T11:59:23.884Z,22432.00
2019-04-09T12:00:16.242Z,22208.00
2019-04-09T12:01:16.527Z,22144.00
2019-04-09T12:02:16.338Z,22272.00
2019-04-09T12:03:16.914Z,22304.00
2019-04-09T12:04:16.435Z,22240.00
2019-04-09T12:05:16.491Z,22272.00
2019-04-09T12:06:17.402Z,22720.00
2019-04-09T12:07:16.575Z,23680.00
2019-04-09T12:08:16.840Z,24416.00
2019-04-09T12:09:16.676Z,25760.00
2019-04-09T12:10:17.104Z,27392.00
2019-04-09T12:11:16.800Z,29728.00
2019-04-09T12:12:17.772Z,32864.00
2019-04-09T12:13:16.871Z,41632.00
2019-04-09T12:14:17.988Z,36768.00
2019-04-09T12:15:16.968Z,36384.00
2019-04-09T12:16:17.381Z,37024.00
2019-04-09T12:17:18.832Z,38272.00
2019-04-09T12:18:17.766Z,40192.00
2019-04-09T12:19:17.285Z,39840.00
2019-04-09T12:20:17.301Z,49600.00
2019-04-09T12:21:18.028Z,43968.00
2019-04-09T12:22:17.341Z,54592.00
2019-04-09T12:23:18.250Z,51648.00
2019-04-09T12:24:17.414Z,48992.00
2019-04-09T12:25:17.946Z,76608.00
2019-04-09T12:26:17.597Z,61088.00